Time;durP1;ratioP1;P1;durP2;ratioP2;P2;SDS_P1;SDS_P2;PMS_P1;PMS_P2;Temp;Humidity;BMP_temperature;BMP_pressure;BME280_temperature;BME280_humidity;BME280_pressure;Samples;Min_cycle;Max_cycle;Signal;HPM_P1;HPM_P2
2023/01/23 00:08:06;;;;;;;13.43;6.43;;;0.60;1.00;;;;;;10476748;28;20225;-80
2023/01/23 00:13:27;;;;;;;13.83;7.40;;;0.60;1.00;;;;;;10478673;28;20198;-79
2023/01/23 00:18:49;;;;;;;9.47;5.87;;;0.60;99.90;;;;;;10477728;28;20493;-78
2023/01/23 00:24:11;;;;;;;8.20;5.30;;;0.60;99.90;;;;;;10454492;28;20204;-80
2023/01/23 00:29:33;;;;;;;8.67;5.23;;;0.60;99.90;;;;;;10477677;28;20218;-80
2023/01/23 00:34:54;;;;;;;13.83;6.00;;;0.60;99.90;;;;;;10478204;28;20195;-79
2023/01/23 00:40:15;;;;;;;11.53;6.77;;;0.60;99.90;;;;;;10483652;28;20512;-79
2023/01/23 00:45:37;;;;;;;9.57;6.20;;;0.60;99.90;;;;;;10483797;28;20543;-79
2023/01/23 00:50:58;;;;;;;9.80;6.30;;;0.60;99.90;;;;;;10485809;28;20206;-79
2023/01/23 00:56:20;;;;;;;9.10;5.97;;;0.60;99.90;;;;;;10483889;28;20245;-79
2023/01/23 01:08:42;;;;;;;11.40;6.70;;;0.60;99.90;;;;;;10485725;28;20281;-78
2023/01/23 01:14:04;;;;;;;13.10;8.17;;;0.60;99.90;;;;;;10479996;28;20199;-78
2023/01/23 01:19:27;;;;;;;13.57;7.97;;;0.50;99.90;;;;;;10485561;28;20232;-78
2023/01/23 01:24:47;;;;;;;17.00;8.43;;;0.50;99.90;;;;;;10483730;28;20285;-80
2023/01/23 01:30:09;;;;;;;16.63;9.80;;;0.50;99.90;;;;;;10485391;28;20215;-78
2023/01/23 01:35:30;;;;;;;10.20;7.17;;;0.50;1.00;;;;;;10483763;28;20250;-79
2023/01/23 01:40:51;;;;;;;8.77;6.07;;;0.50;1.00;;;;;;10483077;28;20252;-79
2023/01/23 01:46:26;;;;;;;8.60;5.37;;;0.50;99.90;;;;;;10483662;28;20219;-80
2023/01/23 01:51:58;;;;;;;55.77;17.53;;;0.50;99.90;;;;;;10483699;28;20206;-79
2023/01/23 01:57:27;;;;;;;10.93;6.40;;;0.50;99.90;;;;;;10483107;28;20260;-79
2023/01/23 02:02:57;;;;;;;17.70;6.83;;;0.50;1.00;;;;;;10469607;28;20516;-79
2023/01/23 02:08:27;;;;;;;12.03;5.80;;;0.50;1.00;;;;;;10483672;28;20454;-80
2023/01/23 02:13:52;;;;;;;8.73;5.43;;;0.50;99.90;;;;;;10481663;28;20202;-80
2023/01/23 02:19:28;;;;;;;8.40;6.37;;;0.60;99.90;;;;;;10483235;28;20190;-79
2023/01/23 02:25:21;;;;;;;12.30;7.10;;;0.60;99.90;;;;;;10480138;28;20215;-79
2023/01/23 02:30:45;;;;;;;9.07;6.37;;;0.60;99.90;;;;;;10519207;28;20213;-78
2023/01/23 02:36:07;;;;;;;9.00;6.47;;;0.60;99.90;;;;;;10456977;28;20244;-79
2023/01/23 02:41:32;;;;;;;8.47;5.57;;;0.60;99.90;;;;;;10472385;28;20263;-79
2023/01/23 02:46:55;;;;;;;10.03;5.13;;;0.40;40.00;;;;;;10464371;28;20263;-80
2023/01/23 02:52:19;;;;;;;6.13;4.63;;;0.40;99.90;;;;;;10466315;28;20306;-79
2023/01/23 02:57:40;;;;;;;8.77;5.97;;;0.40;99.90;;;;;;10463888;28;20309;-79
2023/01/23 03:03:04;;;;;;;9.23;6.50;;;0.50;99.90;;;;;;10465034;28;20239;-79
2023/01/23 03:08:32;;;;;;;6.97;5.60;;;0.50;99.90;;;;;;10479730;28;20233;-78
2023/01/23 03:13:53;;;;;;;6.10;4.77;;;0.50;99.90;;;;;;10464859;28;20252;-79
2023/01/23 03:19:15;;;;;;;9.90;6.30;;;0.50;99.90;;;;;;10443742;28;20222;-79
2023/01/23 03:24:37;;;;;;;7.57;5.10;;;0.50;99.90;;;;;;10440561;28;20373;-79
2023/01/23 03:30:19;;;;;;;9.30;6.53;;;0.50;99.90;;;;;;10454124;28;20259;-77
2023/01/23 03:35:41;;;;;;;8.90;6.37;;;0.40;99.90;;;;;;10456302;28;20427;-77
2023/01/23 03:46:48;;;;;;;13.43;6.97;;;0.40;99.90;;;;;;10478972;28;20227;-79
2023/01/23 03:52:10;;;;;;;9.73;6.27;;;0.50;99.90;;;;;;10477553;28;20497;-79
2023/01/23 03:57:31;;;;;;;9.33;6.00;;;0.50;99.90;;;;;;10478423;28;20305;-79
2023/01/23 04:03:00;;;;;;;7.30;5.37;;;0.60;99.90;;;;;;10472236;28;20252;-80
2023/01/23 04:08:22;;;;;;;11.07;8.30;;;0.50;99.90;;;;;;10432104;28;20303;-78
2023/01/23 04:13:43;;;;;;;11.70;7.07;;;0.40;99.90;;;;;;10490127;28;20200;-80
2023/01/23 04:19:04;;;;;;;11.13;6.93;;;0.40;99.90;;;;;;10475077;28;20380;-80
2023/01/23 04:24:26;;;;;;;15.20;8.83;;;0.40;90.90;;;;;;10436560;28;20381;-78
2023/01/23 04:29:47;;;;;;;24.73;10.03;;;0.40;99.90;;;;;;10446663;28;20236;-79
2023/01/23 04:35:08;;;;;;;24.13;9.80;;;0.40;1.00;;;;;;10462786;28;20198;-80
2023/01/23 04:40:33;;;;;;;12.97;8.13;;;0.40;1.00;;;;;;10466923;28;20514;-79
2023/01/23 04:45:55;;;;;;;14.63;8.87;;;0.40;43.30;;;;;;10478030;28;20241;-77
2023/01/23 04:51:23;;;;;;;16.03;9.93;;;0.50;1.00;;;;;;10475058;28;20215;-78
2023/01/23 04:56:44;;;;;;;11.17;7.20;;;0.50;99.90;;;;;;10476714;28;20253;-79
2023/01/23 05:02:08;;;;;;;10.43;6.87;;;0.50;99.90;;;;;;10475745;28;20213;-79
2023/01/23 05:07:34;;;;;;;11.60;7.27;;;0.50;41.80;;;;;;10476241;28;20268;-78
2023/01/23 05:12:59;;;;;;;38.93;15.27;;;0.50;99.90;;;;;;10475514;28;20218;-78
2023/01/23 05:18:21;;;;;;;20.97;11.43;;;0.50;99.90;;;;;;10476225;28;20188;-77
2023/01/23 05:23:42;;;;;;;11.87;8.10;;;0.50;5.50;;;;;;10442230;28;20199;-78
2023/01/23 05:29:05;;;;;;;14.83;8.63;;;0.50;99.90;;;;;;10470310;28;20487;-80
2023/01/23 05:34:30;;;;;;;27.60;13.10;;;0.40;99.90;;;;;;10481446;28;20191;-78
2023/01/23 05:39:55;;;;;;;17.73;10.10;;;0.50;99.90;;;;;;10460081;28;20226;-77
2023/01/23 05:45:18;;;;;;;13.13;8.17;;;0.50;99.90;;;;;;10483380;28;20197;-78
2023/01/23 05:50:40;;;;;;;12.43;7.90;;;0.50;99.90;;;;;;10481148;28;20367;-78
2023/01/23 05:56:05;;;;;;;17.83;9.83;;;0.50;99.90;;;;;;10468871;28;20230;-78
2023/01/23 06:01:33;;;;;;;10.37;7.30;;;0.50;99.90;;;;;;10454810;28;20441;-79
2023/01/23 06:07:15;;;;;;;13.10;7.97;;;0.40;99.90;;;;;;10449885;28;20226;-78
2023/01/23 06:12:38;;;;;;;14.67;8.27;;;0.40;99.90;;;;;;10482139;28;20228;-78
2023/01/23 06:17:59;;;;;;;16.00;9.70;;;0.50;99.90;;;;;;10479186;28;20197;-78
2023/01/23 06:23:21;;;;;;;50.20;25.07;;;0.50;99.90;;;;;;10479207;28;20216;-77
2023/01/23 06:28:42;;;;;;;23.13;13.97;;;0.40;99.90;;;;;;10480526;28;20233;-79
2023/01/23 06:34:04;;;;;;;21.33;12.50;;;0.50;99.90;;;;;;10480321;28;20189;-80
2023/01/23 06:39:33;;;;;;;34.50;15.77;;;0.50;99.90;;;;;;10464170;28;20194;-79
2023/01/23 06:44:56;;;;;;;18.33;12.07;;;0.50;99.90;;;;;;10466003;28;20191;-78
2023/01/23 06:50:19;;;;;;;16.80;11.07;;;0.50;99.90;;;;;;10479373;28;20230;-79
2023/01/23 06:55:40;;;;;;;26.73;14.43;;;0.50;99.90;;;;;;10480087;28;20223;-77
2023/01/23 07:01:14;;;;;;;31.77;16.07;;;0.40;99.90;;;;;;10465501;28;20284;-79
2023/01/23 07:06:58;;;;;;;39.63;17.23;;;0.50;99.90;;;;;;10479648;28;20240;-80
2023/01/23 07:12:20;;;;;;;31.97;17.20;;;0.50;99.90;;;;;;10480622;28;20198;-78
2023/01/23 07:17:42;;;;;;;24.60;13.17;;;0.50;99.90;;;;;;10478330;28;20198;-78
2023/01/23 07:23:03;;;;;;;23.03;13.57;;;0.50;99.90;;;;;;10479133;28;20389;-79
2023/01/23 07:28:25;;;;;;;27.27;17.80;;;0.50;99.90;;;;;;10478502;28;20268;-79
2023/01/23 07:33:46;;;;;;;27.57;16.50;;;0.50;99.90;;;;;;10479728;28;20247;-78
2023/01/23 07:39:08;;;;;;;20.43;10.90;;;0.50;99.90;;;;;;10478033;28;20196;-80
2023/01/23 07:44:29;;;;;;;37.97;20.27;;;0.50;99.90;;;;;;10461678;28;20187;-78
2023/01/23 07:49:50;;;;;;;28.63;15.73;;;0.50;1.00;;;;;;10476573;28;20223;-79
2023/01/23 07:55:10;;;;;;;30.53;15.87;;;0.50;99.90;;;;;;10478769;28;20226;-79
2023/01/23 08:00:31;;;;;;;32.80;16.67;;;0.40;99.90;;;;;;10477542;28;20247;-79
2023/01/23 08:05:53;;;;;;;34.17;18.53;;;0.40;99.90;;;;;;10478555;28;20217;-79
2023/01/23 08:11:15;;;;;;;72.37;30.33;;;0.40;99.90;;;;;;10474135;28;20207;-79
2023/01/23 08:16:36;;;;;;;73.67;34.13;;;0.50;9.10;;;;;;10437164;28;20242;-79
2023/01/23 08:21:57;;;;;;;88.17;36.60;;;0.50;34.90;;;;;;10475001;28;20206;-79
2023/01/23 08:27:18;;;;;;;151.40;50.83;;;0.60;1.00;;;;;;10476866;28;20401;-79
2023/01/23 08:32:39;;;;;;;148.17;49.97;;;0.60;1.00;;;;;;10475245;28;20251;-80
2023/01/23 08:38:01;;;;;;;110.00;41.70;;;0.70;1.00;;;;;;10452307;28;20254;-81
2023/01/23 08:43:22;;;;;;;95.27;36.37;;;0.70;1.00;;;;;;10440457;28;20216;-82
2023/01/23 08:48:44;;;;;;;80.20;32.90;;;0.70;1.00;;;;;;10454177;28;20232;-78
2023/01/23 08:54:05;;;;;;;94.43;37.80;;;0.80;99.90;;;;;;10470995;28;20196;-78
2023/01/23 08:59:27;;;;;;;171.57;63.97;;;0.90;1.00;;;;;;10472178;28;20217;-76
2023/01/23 09:04:49;;;;;;;138.10;51.73;;;0.90;1.00;;;;;;10480695;28;20485;-77
2023/01/23 09:10:11;;;;;;;102.77;41.10;;;0.90;22.50;;;;;;10477097;28;20264;-78
2023/01/23 09:15:32;;;;;;;33.93;15.23;;;0.90;1.00;;;;;;10479629;28;20195;-77
2023/01/23 09:20:54;;;;;;;17.93;8.30;;;0.90;1.00;;;;;;10502830;28;20278;-79
2023/01/23 09:26:15;;;;;;;35.77;16.90;;;0.90;99.90;;;;;;10517374;28;20212;-78
2023/01/23 09:31:37;;;;;;;39.57;21.47;;;0.90;1.00;;;;;;10495850;28;20211;-78
2023/01/23 09:36:58;;;;;;;33.40;16.93;;;0.90;1.00;;;;;;10447249;28;20502;-77
2023/01/23 09:42:30;;;;;;;24.87;13.60;;;0.90;99.90;;;;;;10471015;28;20532;-77
2023/01/23 09:48:13;;;;;;;28.23;14.70;;;0.90;1.00;;;;;;10478207;28;20232;-81
2023/01/23 09:53:38;;;;;;;24.80;13.10;;;1.00;99.90;;;;;;10450490;28;20379;-80
2023/01/23 09:59:17;;;;;;;24.93;12.57;;;1.10;1.00;;;;;;10448033;28;20234;-81
2023/01/23 10:04:38;;;;;;;16.43;9.87;;;1.20;99.90;;;;;;10463276;28;20200;-78
2023/01/23 10:10:05;;;;;;;13.40;7.20;;;1.10;99.90;;;;;;10457384;28;20232;-78
2023/01/23 10:15:54;;;;;;;18.73;9.67;;;1.00;1.00;;;;;;10471045;28;20218;-78
2023/01/23 10:21:20;;;;;;;41.97;20.30;;;1.10;99.90;;;;;;10449113;28;20219;-85
2023/01/23 10:26:45;;;;;;;33.90;16.97;;;1.10;1.00;;;;;;10428447;28;20595;-80
2023/01/23 10:32:22;;;;;;;44.27;20.40;;;1.10;1.00;;;;;;10475109;28;20199;-81
2023/01/23 10:38:11;;;;;;;34.27;14.77;;;1.10;1.00;;;;;;10460357;28;20218;-79
2023/01/23 10:43:32;;;;;;;27.30;11.83;;;1.20;1.00;;;;;;10475570;28;20200;-85
2023/01/23 10:48:53;;;;;;;19.33;11.43;;;1.10;1.00;;;;;;10439519;28;20240;-79
2023/01/23 10:54:26;;;;;;;13.90;7.23;;;1.10;1.00;;;;;;10447567;28;20223;-79
2023/01/23 11:00:07;;;;;;;16.17;10.37;;;1.10;99.90;;;;;;10465928;28;20210;-79
2023/01/23 11:05:40;;;;;;;21.80;13.67;;;1.10;99.90;;;;;;10449732;28;20207;-78
2023/01/23 11:11:15;;;;;;;28.47;14.57;;;1.00;1.00;;;;;;10459478;28;20215;-78
2023/01/23 11:16:37;;;;;;;31.90;15.07;;;1.10;1.00;;;;;;10471882;28;20227;-76
2023/01/23 11:22:03;;;;;;;37.57;15.60;;;1.00;99.90;;;;;;10433043;28;20203;-77
2023/01/23 11:27:29;;;;;;;16.73;10.57;;;1.00;99.90;;;;;;10444012;28;20782;-77
2023/01/23 11:33:00;;;;;;;11.10;7.30;;;1.00;1.00;;;;;;10475237;28;20196;-78
2023/01/23 11:38:27;;;;;;;20.23;10.23;;;1.00;99.90;;;;;;10469324;28;20211;-77
2023/01/23 11:43:51;;;;;;;18.43;8.87;;;0.90;1.00;;;;;;10474060;28;20199;-79
2023/01/23 11:49:36;;;;;;;19.47;10.77;;;0.90;1.00;;;;;;10472572;28;20433;-77
2023/01/23 11:55:07;;;;;;;23.10;11.73;;;1.00;99.90;;;;;;10511291;28;20343;-78
2023/01/23 12:00:42;;;;;;;16.53;9.70;;;1.10;1.00;;;;;;10478805;28;20364;-80
2023/01/23 12:06:19;;;;;;;16.90;9.67;;;1.00;99.90;;;;;;10495865;28;20199;-79
2023/01/23 12:11:57;;;;;;;30.43;14.77;;;0.90;1.00;;;;;;10443967;28;20207;-78
2023/01/23 12:17:31;;;;;;;41.17;18.93;;;0.90;1.00;;;;;;10490268;28;20214;-78
2023/01/23 12:23:03;;;;;;;33.00;17.20;;;0.90;1.00;;;;;;10468866;28;20211;-77
2023/01/23 12:28:33;;;;;;;45.80;18.53;;;0.80;99.90;;;;;;10469298;28;20465;-81
2023/01/23 12:34:01;;;;;;;41.40;17.70;;;0.90;1.00;;;;;;10472373;28;20241;-79
2023/01/23 12:40:04;;;;;;;18.70;10.50;;;1.00;1.00;;;;;;10455353;28;20210;-81
2023/01/23 12:45:30;;;;;;;21.00;12.17;;;1.00;1.00;;;;;;10467759;28;20205;-80
2023/01/23 12:51:05;;;;;;;23.77;12.77;;;1.00;1.00;;;;;;10438653;28;20231;-78
2023/01/23 12:56:33;;;;;;;18.43;11.67;;;1.00;99.90;;;;;;10451608;28;20242;-76
2023/01/23 13:02:06;;;;;;;20.67;12.27;;;1.00;1.00;;;;;;10452018;28;20200;-74
2023/01/23 13:07:34;;;;;;;18.43;10.17;;;0.90;31.10;;;;;;10469495;28;20230;-77
2023/01/23 13:12:56;;;;;;;15.47;9.40;;;0.90;99.90;;;;;;10469860;28;20230;-78
2023/01/23 13:18:26;;;;;;;18.50;10.83;;;0.80;1.00;;;;;;10481082;28;20269;-80
2023/01/23 13:25:08;;;;;;;21.60;11.63;;;0.90;99.90;;;;;;10498648;28;20191;-78
2023/01/23 13:29:49;;;;;;;15.93;9.83;;;1.00;99.90;;;;;;10483663;28;20224;-78
2023/01/23 13:35:38;;;;;;;15.93;11.30;;;0.90;1.00;;;;;;10484048;28;20250;-77
2023/01/23 13:41:03;;;;;;;44.30;23.00;;;0.90;1.00;;;;;;10463500;28;20219;-77
2023/01/23 13:46:56;;;;;;;20.93;12.37;;;0.90;1.00;;;;;;10518578;28;20194;-77
2023/01/23 13:58:49;;;;;;;24.77;15.53;;;0.80;99.90;;;;;;10269143;28;20297;-79
2023/01/23 14:10:23;;;;;;;42.37;20.77;;;0.80;99.90;;;;;;10114023;29;20814;-74
2023/01/23 14:16:09;;;;;;;26.50;16.53;;;0.80;1.00;;;;;;10051597;29;20236;-75
2023/01/23 14:21:56;;;;;;;31.60;16.93;;;0.80;99.90;;;;;;10109775;29;20228;-74
2023/01/23 14:27:33;;;;;;;65.60;26.40;;;0.80;1.00;;;;;;10169106;29;20238;-78
2023/01/23 14:33:10;;;;;;;55.40;24.20;;;0.70;99.90;;;;;;10193121;29;20546;-77
2023/01/23 14:38:33;;;;;;;44.53;20.93;;;0.80;1.00;;;;;;10302486;28;20469;-77
2023/01/23 14:43:57;;;;;;;25.50;15.00;;;0.80;1.00;;;;;;10421890;28;20220;-77
2023/01/23 14:49:27;;;;;;;49.30;25.70;;;0.90;1.00;;;;;;10486828;28;20266;-77
2023/01/23 14:54:48;;;;;;;71.97;32.60;;;0.90;36.80;;;;;;10504120;28;20234;-77
2023/01/23 15:00:18;;;;;;;75.20;34.53;;;0.90;99.90;;;;;;10476435;28;20223;-78
2023/01/23 15:05:40;;;;;;;41.33;22.13;;;0.90;1.00;;;;;;10503685;28;20727;-75
2023/01/23 15:11:03;;;;;;;30.33;16.33;;;0.90;1.00;;;;;;10516716;28;20429;-75
2023/01/23 15:16:32;;;;;;;27.57;15.90;;;0.80;99.90;;;;;;10488763;28;20250;-75
2023/01/23 15:22:20;;;;;;;22.80;13.60;;;0.70;1.00;;;;;;10443926;28;20213;-76
2023/01/23 15:27:41;;;;;;;18.50;11.90;;;0.70;1.00;;;;;;10446425;28;20289;-74
2023/01/23 15:33:08;;;;;;;18.40;12.10;;;0.80;1.00;;;;;;10470999;28;20199;-77
2023/01/23 15:38:30;;;;;;;39.03;20.20;;;0.80;99.90;;;;;;10461844;28;20232;-76
2023/01/23 15:43:51;;;;;;;36.53;18.83;;;0.80;1.00;;;;;;10471820;28;20290;-75
2023/01/23 15:49:12;;;;;;;25.53;14.20;;;0.70;9.90;;;;;;10473956;28;20529;-78
2023/01/23 15:54:45;;;;;;;27.30;14.77;;;0.70;99.90;;;;;;10476757;28;20238;-76
2023/01/23 16:00:19;;;;;;;22.80;14.37;;;0.70;99.90;;;;;;10483335;28;20429;-79
2023/01/23 16:05:41;;;;;;;37.07;17.40;;;0.70;1.00;;;;;;10470791;28;20217;-80
2023/01/23 16:11:02;;;;;;;42.20;21.90;;;0.80;1.00;;;;;;10463364;28;20237;-79
2023/01/23 16:16:23;;;;;;;42.30;22.67;;;0.70;1.00;;;;;;10471880;28;20270;-79
2023/01/23 16:21:45;;;;;;;34.73;19.57;;;0.60;1.00;;;;;;10493904;28;20199;-78
2023/01/23 16:27:17;;;;;;;28.00;16.97;;;0.60;1.00;;;;;;10448104;28;20224;-78
2023/01/23 16:32:39;;;;;;;23.90;14.13;;;0.60;1.00;;;;;;10453775;28;20381;-77
2023/01/23 16:38:00;;;;;;;27.90;14.97;;;0.60;99.90;;;;;;10456287;28;20280;-78
2023/01/23 16:43:22;;;;;;;27.73;15.23;;;0.60;1.00;;;;;;10489885;28;20253;-77
2023/01/23 16:48:43;;;;;;;30.27;17.40;;;0.60;99.90;;;;;;10475282;28;20227;-78
2023/01/23 16:54:05;;;;;;;58.97;24.33;;;0.60;99.90;;;;;;10463649;28;20234;-78
2023/01/23 16:59:41;;;;;;;28.10;16.07;;;0.70;99.90;;;;;;10435318;28;20196;-78
2023/01/23 17:05:03;;;;;;;60.80;22.77;;;0.60;99.90;;;;;;10471220;28;20273;-78
2023/01/23 17:10:25;;;;;;;125.50;41.37;;;0.60;1.00;;;;;;10476370;28;20223;-78
2023/01/23 17:15:59;;;;;;;55.10;23.90;;;0.60;1.00;;;;;;10451432;28;20195;-78
2023/01/23 17:21:23;;;;;;;43.77;18.83;;;0.70;1.00;;;;;;10441497;28;20198;-79
2023/01/23 17:26:44;;;;;;;30.00;14.07;;;0.70;54.20;;;;;;10478433;28;20232;-78
2023/01/23 17:32:05;;;;;;;55.60;22.13;;;0.60;99.90;;;;;;10484889;28;20263;-78
2023/01/23 17:37:26;;;;;;;42.83;17.43;;;0.70;1.00;;;;;;10469085;28;20230;-78
2023/01/23 17:42:48;;;;;;;39.67;17.70;;;0.70;1.00;;;;;;10483120;28;20217;-78
2023/01/23 17:48:26;;;;;;;36.57;18.87;;;0.60;1.00;;;;;;10455880;28;20238;-78
2023/01/23 17:53:47;;;;;;;18.23;12.53;;;0.60;1.00;;;;;;10476333;28;20239;-78
2023/01/23 17:59:08;;;;;;;32.57;17.57;;;0.60;1.00;;;;;;10480134;28;20234;-77
2023/01/23 18:04:29;;;;;;;52.03;27.33;;;0.60;1.00;;;;;;10482753;28;20202;-77
2023/01/23 18:09:52;;;;;;;38.73;20.47;;;0.60;1.00;;;;;;10482312;28;20233;-77
2023/01/23 18:15:29;;;;;;;17.83;11.40;;;0.60;1.00;;;;;;10481921;28;20532;-77
2023/01/23 18:20:53;;;;;;;26.13;12.90;;;0.60;1.00;;;;;;10485882;28;20227;-77
2023/01/23 18:26:31;;;;;;;28.30;15.00;;;0.70;1.00;;;;;;10486924;28;20213;-74
2023/01/23 18:32:17;;;;;;;38.33;20.60;;;0.70;1.00;;;;;;10479826;28;20414;-75
2023/01/23 18:38:07;;;;;;;41.53;22.37;;;0.60;1.00;;;;;;10470067;28;20271;-75
2023/01/23 18:43:34;;;;;;;26.70;16.80;;;0.60;1.00;;;;;;10518865;28;20213;-76
2023/01/23 18:48:55;;;;;;;45.07;18.77;;;0.60;1.00;;;;;;10519818;28;20236;-77
2023/01/23 18:54:43;;;;;;;40.10;20.23;;;0.60;1.00;;;;;;10518887;28;20219;-76
2023/01/23 19:00:11;;;;;;;25.67;16.37;;;0.60;1.00;;;;;;10519824;28;20203;-77
2023/01/23 19:05:33;;;;;;;40.53;19.47;;;0.60;1.00;;;;;;10518439;28;20218;-77
2023/01/23 19:11:03;;;;;;;39.93;18.67;;;0.60;1.00;;;;;;10504883;28;20429;-76
2023/01/23 19:16:30;;;;;;;30.70;14.53;;;0.60;1.00;;;;;;10518400;28;20252;-77
2023/01/23 19:21:51;;;;;;;40.37;17.00;;;0.60;1.00;;;;;;10456687;28;20197;-78
2023/01/23 19:27:20;;;;;;;30.77;13.50;;;0.60;1.00;;;;;;10480781;28;20193;-77
2023/01/23 19:32:42;;;;;;;43.70;19.30;;;0.60;1.00;;;;;;10478750;28;20279;-78
2023/01/23 19:38:04;;;;;;;35.17;17.80;;;0.60;1.00;;;;;;10479466;28;20199;-78
2023/01/23 19:43:25;;;;;;;37.57;14.13;;;0.60;1.00;;;;;;10477899;28;20420;-78
2023/01/23 19:48:47;;;;;;;25.23;11.47;;;0.50;1.00;;;;;;10478364;28;20219;-78
2023/01/23 19:54:13;;;;;;;29.73;11.80;;;0.50;1.00;;;;;;10478453;28;20202;-78
2023/01/23 19:59:34;;;;;;;35.10;14.40;;;0.60;99.90;;;;;;10479477;28;20235;-78
2023/01/23 20:04:56;;;;;;;44.03;19.67;;;0.60;1.00;;;;;;10453219;28;20405;-79
2023/01/23 20:10:17;;;;;;;26.20;13.80;;;0.60;18.80;;;;;;10437859;28;20442;-78
2023/01/23 20:15:38;;;;;;;17.70;11.17;;;0.70;99.90;;;;;;10473596;28;20394;-78
2023/01/23 20:21:00;;;;;;;17.13;10.50;;;0.70;1.00;;;;;;10437272;28;20358;-78
2023/01/23 20:26:22;;;;;;;21.10;12.43;;;0.70;1.00;;;;;;10474086;28;20498;-78
2023/01/23 20:31:44;;;;;;;18.63;12.03;;;0.60;63.30;;;;;;10478284;28;20211;-78
2023/01/23 20:37:04;;;;;;;19.80;13.13;;;0.60;1.00;;;;;;10475765;28;20199;-77
2023/01/23 20:42:25;;;;;;;16.83;11.80;;;0.60;1.00;;;;;;10475868;28;20184;-77
2023/01/23 20:47:46;;;;;;;22.37;14.20;;;0.60;1.00;;;;;;10435764;28;20212;-78
2023/01/23 20:53:30;;;;;;;19.90;13.07;;;0.60;1.00;;;;;;10445551;28;20250;-77
2023/01/23 21:04:34;;;;;;;24.37;16.80;;;0.50;1.00;;;;;;10483706;28;20227;-78
2023/01/23 21:09:55;;;;;;;21.60;14.60;;;0.50;99.90;;;;;;10486269;28;20219;-79
2023/01/23 21:15:16;;;;;;;24.07;15.63;;;0.60;99.90;;;;;;10484090;28;20198;-78
2023/01/23 21:20:37;;;;;;;36.17;22.23;;;0.60;31.70;;;;;;10498871;28;20203;-78
2023/01/23 21:26:01;;;;;;;27.20;18.93;;;0.60;1.00;;;;;;10483515;28;20207;-78
2023/01/23 21:31:26;;;;;;;21.63;14.70;;;0.60;99.90;;;;;;10485323;28;20223;-78
2023/01/23 21:36:47;;;;;;;61.13;22.77;;;0.50;99.90;;;;;;10483568;28;20196;-78
2023/01/23 21:42:08;;;;;;;37.03;18.27;;;0.50;1.00;;;;;;10484963;28;20199;-78
2023/01/23 21:47:29;;;;;;;59.77;26.10;;;0.50;5.00;;;;;;10479747;28;20209;-79
2023/01/23 21:52:50;;;;;;;36.47;19.67;;;0.50;99.90;;;;;;10483465;28;20204;-77
2023/01/23 21:58:11;;;;;;;28.43;14.97;;;0.50;99.90;;;;;;10484134;28;20223;-77
2023/01/23 22:03:35;;;;;;;21.20;13.57;;;0.50;1.00;;;;;;10480885;28;20505;-77
2023/01/23 22:08:56;;;;;;;19.73;13.33;;;0.50;1.00;;;;;;10483248;28;20544;-77
2023/01/23 22:14:18;;;;;;;18.30;12.27;;;0.50;69.00;;;;;;10481352;28;20207;-76
2023/01/23 22:19:39;;;;;;;21.33;11.63;;;0.60;99.90;;;;;;10483248;28;20236;-75
2023/01/23 22:25:00;;;;;;;17.53;12.97;;;0.70;1.00;;;;;;10481486;28;20194;-78
2023/01/23 22:30:20;;;;;;;21.57;12.53;;;0.60;1.00;;;;;;10482804;28;20218;-76
2023/01/23 22:35:42;;;;;;;21.17;13.63;;;0.70;1.00;;;;;;10480915;28;20203;-75
2023/01/23 22:41:04;;;;;;;29.73;18.50;;;0.70;1.00;;;;;;10441597;28;20298;-77
2023/01/23 22:46:27;;;;;;;26.20;15.73;;;0.60;1.00;;;;;;10473782;28;20254;-78
2023/01/23 22:51:50;;;;;;;24.37;15.17;;;0.60;1.00;;;;;;10466834;28;20446;-76
2023/01/23 22:57:11;;;;;;;22.90;14.80;;;0.60;1.00;;;;;;10480494;28;20231;-76
2023/01/23 23:02:35;;;;;;;18.93;12.53;;;0.60;1.00;;;;;;10480040;28;20206;-76
2023/01/23 23:07:56;;;;;;;20.50;12.77;;;0.70;99.90;;;;;;10439991;28;20249;-76
2023/01/23 23:13:17;;;;;;;22.47;14.13;;;0.70;1.00;;;;;;10455680;28;20239;-76
2023/01/23 23:18:38;;;;;;;19.47;13.43;;;0.70;1.00;;;;;;10469940;28;20199;-77
2023/01/23 23:24:01;;;;;;;24.50;16.10;;;0.70;1.00;;;;;;10478569;28;20210;-77
2023/01/23 23:29:22;;;;;;;16.27;11.80;;;0.60;1.00;;;;;;10480531;28;20263;-76
2023/01/23 23:34:43;;;;;;;18.23;12.53;;;0.70;1.00;;;;;;10479498;28;20385;-77
2023/01/23 23:40:05;;;;;;;22.50;13.77;;;0.70;1.00;;;;;;10479291;28;20223;-77
2023/01/23 23:45:26;;;;;;;20.70;12.77;;;0.60;1.00;;;;;;10479008;28;20332;-76
2023/01/23 23:50:47;;;;;;;21.77;12.53;;;0.50;1.00;;;;;;10478914;28;20594;-77
2023/01/23 23:56:16;;;;;;;20.97;12.57;;;0.40;99.90;;;;;;10477149;28;20281;-76
